sensor_id;sensor_type;location;lat;lon;timestamp;pressure;altitude;pressure_sealevel;temperature;humidity
75543;BME280;64129;53.508;10.476;2023-04-06T00:00:00;101549.88;;;1.20;73.50
75543;BME280;64129;53.508;10.476;2023-04-06T00:02:35;101556.97;;;1.24;73.32
75543;BME280;64129;53.508;10.476;2023-04-06T00:05:02;101550.59;;;1.15;73.20
75543;BME280;64129;53.508;10.476;2023-04-06T00:07:28;101545.53;;;1.21;72.98
75543;BME280;64129;53.508;10.476;2023-04-06T00:09:56;101553.97;;;1.11;73.27
75543;BME280;64129;53.508;10.476;2023-04-06T00:12:22;101544.72;;;1.23;73.05
75543;BME280;64129;53.508;10.476;2023-04-06T00:14:49;101544.84;;;1.28;73.12
75543;BME280;64129;53.508;10.476;2023-04-06T00:17:15;101552.53;;;1.22;73.08
75543;BME280;64129;53.508;10.476;2023-04-06T00:19:42;101547.13;;;1.16;73.01
75543;BME280;64129;53.508;10.476;2023-04-06T00:22:08;101548.47;;;1.02;73.54
75543;BME280;64129;53.508;10.476;2023-04-06T00:24:35;101542.53;;;1.07;72.97
75543;BME280;64129;53.508;10.476;2023-04-06T00:27:01;101538.38;;;1.14;73.28
75543;BME280;64129;53.508;10.476;2023-04-06T00:29:28;101544.00;;;0.98;73.24
75543;BME280;64129;53.508;10.476;2023-04-06T00:31:55;101541.22;;;0.91;73.98
75543;BME280;64129;53.508;10.476;2023-04-06T00:34:21;101543.06;;;0.96;73.69
75543;BME280;64129;53.508;10.476;2023-04-06T00:36:47;101543.44;;;1.08;73.21
75543;BME280;64129;53.508;10.476;2023-04-06T00:39:14;101533.97;;;0.81;73.86
75543;BME280;64129;53.508;10.476;2023-04-06T00:41:46;101531.22;;;0.77;74.17
75543;BME280;64129;53.508;10.476;2023-04-06T00:44:15;101528.31;;;0.98;73.58
75543;BME280;64129;53.508;10.476;2023-04-06T00:46:41;101537.84;;;0.96;73.59
75543;BME280;64129;53.508;10.476;2023-04-06T00:49:08;101522.75;;;0.85;74.18
75543;BME280;64129;53.508;10.476;2023-04-06T00:51:35;101530.59;;;0.85;74.18
75543;BME280;64129;53.508;10.476;2023-04-06T00:54:01;101526.19;;;0.84;74.50
75543;BME280;64129;53.508;10.476;2023-04-06T00:56:31;101528.06;;;0.88;74.36
75543;BME280;64129;53.508;10.476;2023-04-06T00:58:58;101536.53;;;0.80;74.33
75543;BME280;64129;53.508;10.476;2023-04-06T01:01:25;101531.47;;;0.56;74.56
75543;BME280;64129;53.508;10.476;2023-04-06T01:03:54;101518.94;;;0.74;73.90
75543;BME280;64129;53.508;10.476;2023-04-06T01:06:22;101525.66;;;0.66;73.98
75543;BME280;64129;53.508;10.476;2023-04-06T01:08:56;101517.72;;;0.63;73.95
75543;BME280;64129;53.508;10.476;2023-04-06T01:11:24;101520.22;;;0.58;74.58
75543;BME280;64129;53.508;10.476;2023-04-06T01:13:53;101517.63;;;0.60;74.10
75543;BME280;64129;53.508;10.476;2023-04-06T01:16:30;101517.91;;;0.39;74.32
75543;BME280;64129;53.508;10.476;2023-04-06T01:19:09;101517.56;;;0.57;74.40
75543;BME280;64129;53.508;10.476;2023-04-06T01:21:39;101516.44;;;0.49;74.52
75543;BME280;64129;53.508;10.476;2023-04-06T01:24:17;101516.44;;;0.49;74.16
75543;BME280;64129;53.508;10.476;2023-04-06T01:27:04;101508.34;;;0.40;74.58
75543;BME280;64129;53.508;10.476;2023-04-06T01:29:54;101502.91;;;0.34;74.73
75543;BME280;64129;53.508;10.476;2023-04-06T01:32:34;101501.69;;;0.51;74.76
75543;BME280;64129;53.508;10.476;2023-04-06T01:35:01;101500.25;;;0.32;75.11
75543;BME280;64129;53.508;10.476;2023-04-06T01:37:30;101494.13;;;0.31;75.11
75543;BME280;64129;53.508;10.476;2023-04-06T01:40:01;101502.44;;;0.47;75.35
75543;BME280;64129;53.508;10.476;2023-04-06T01:42:40;101497.97;;;0.14;76.38
75543;BME280;64129;53.508;10.476;2023-04-06T01:45:09;101501.13;;;0.32;75.59
75543;BME280;64129;53.508;10.476;2023-04-06T01:47:37;101496.56;;;0.25;75.85
75543;BME280;64129;53.508;10.476;2023-04-06T01:50:04;101490.91;;;0.39;75.26
75543;BME280;64129;53.508;10.476;2023-04-06T01:52:37;101491.66;;;0.06;75.95
75543;BME280;64129;53.508;10.476;2023-04-06T01:55:04;101488.75;;;0.25;75.11
75543;BME280;64129;53.508;10.476;2023-04-06T01:57:50;101489.97;;;0.08;75.46
75543;BME280;64129;53.508;10.476;2023-04-06T02:00:28;101479.59;;;0.11;75.62
75543;BME280;64129;53.508;10.476;2023-04-06T02:02:55;101475.31;;;0.13;75.17
75543;BME280;64129;53.508;10.476;2023-04-06T02:05:25;101481.38;;;0.12;75.75
75543;BME280;64129;53.508;10.476;2023-04-06T02:07:54;101481.53;;;0.17;76.03
75543;BME280;64129;53.508;10.476;2023-04-06T02:10:29;101481.19;;;0.06;75.88
75543;BME280;64129;53.508;10.476;2023-04-06T02:12:58;101482.66;;;-0.02;76.51
75543;BME280;64129;53.508;10.476;2023-04-06T02:15:26;101475.97;;;0.06;76.38
75543;BME280;64129;53.508;10.476;2023-04-06T02:17:53;101477.84;;;0.10;75.42
75543;BME280;64129;53.508;10.476;2023-04-06T02:20:20;101479.44;;;0.05;75.81
75543;BME280;64129;53.508;10.476;2023-04-06T02:22:46;101482.13;;;0.08;76.12
75543;BME280;64129;53.508;10.476;2023-04-06T02:25:13;101476.16;;;0.12;75.98
75543;BME280;64129;53.508;10.476;2023-04-06T02:27:39;101482.78;;;0.01;75.95
75543;BME280;64129;53.508;10.476;2023-04-06T02:30:07;101490.44;;;-0.04;76.25
75543;BME280;64129;53.508;10.476;2023-04-06T02:32:33;101482.78;;;0.01;75.69
75543;BME280;64129;53.508;10.476;2023-04-06T02:35:00;101481.38;;;0.12;74.82
75543;BME280;64129;53.508;10.476;2023-04-06T02:37:28;101477.66;;;0.04;75.53
75543;BME280;64129;53.508;10.476;2023-04-06T02:39:55;101473.38;;;0.06;75.61
75543;BME280;64129;53.508;10.476;2023-04-06T02:42:21;101489.88;;;0.05;75.75
75543;BME280;64129;53.508;10.476;2023-04-06T02:44:50;101482.56;;;-0.05;76.33
75543;BME280;64129;53.508;10.476;2023-04-06T02:47:19;101486.00;;;-0.06;76.52
75543;BME280;64129;53.508;10.476;2023-04-06T02:49:48;101481.41;;;-0.15;76.39
75543;BME280;64129;53.508;10.476;2023-04-06T02:52:15;101479.44;;;-0.22;76.44
75543;BME280;64129;53.508;10.476;2023-04-06T02:54:44;101477.56;;;-0.26;77.25
75543;BME280;64129;53.508;10.476;2023-04-06T02:57:11;101484.66;;;-0.22;76.82
75543;BME280;64129;53.508;10.476;2023-04-06T02:59:42;101487.41;;;-0.17;77.28
75543;BME280;64129;53.508;10.476;2023-04-06T03:02:16;101489.19;;;-0.16;76.79
75543;BME280;64129;53.508;10.476;2023-04-06T03:04:44;101486.44;;;-0.21;76.28
75543;BME280;64129;53.508;10.476;2023-04-06T03:07:20;101477.09;;;-0.40;76.54
75543;BME280;64129;53.508;10.476;2023-04-06T03:09:46;101477.06;;;-0.41;77.79
75543;BME280;64129;53.508;10.476;2023-04-06T03:12:13;101490.47;;;-0.30;76.99
75543;BME280;64129;53.508;10.476;2023-04-06T03:15:05;101490.25;;;-0.37;77.37
75543;BME280;64129;53.508;10.476;2023-04-06T03:17:33;101489.41;;;-0.36;77.33
75543;BME280;64129;53.508;10.476;2023-04-06T03:20:03;101494.97;;;-0.26;77.54
75543;BME280;64129;53.508;10.476;2023-04-06T03:22:31;101486.81;;;-0.36;77.31
75543;BME280;64129;53.508;10.476;2023-04-06T03:24:58;101488.63;;;-0.35;77.43
75543;BME280;64129;53.508;10.476;2023-04-06T03:27:26;101488.63;;;-0.35;77.43
75543;BME280;64129;53.508;10.476;2023-04-06T03:29:53;101488.22;;;-0.20;77.23
75543;BME280;64129;53.508;10.476;2023-04-06T03:32:26;101487.13;;;-0.26;76.50
75543;BME280;64129;53.508;10.476;2023-04-06T03:34:52;101489.69;;;-0.28;76.86
75543;BME280;64129;53.508;10.476;2023-04-06T03:37:19;101490.25;;;-0.37;77.07
75543;BME280;64129;53.508;10.476;2023-04-06T03:39:51;101481.66;;;-0.34;77.73
75543;BME280;64129;53.508;10.476;2023-04-06T03:42:21;101492.44;;;-0.23;77.35
75543;BME280;64129;53.508;10.476;2023-04-06T03:44:51;101487.88;;;-0.30;76.97
75543;BME280;64129;53.508;10.476;2023-04-06T03:47:18;101488.81;;;-0.28;77.79
75543;BME280;64129;53.508;10.476;2023-04-06T03:49:45;101486.06;;;-0.33;77.41
75543;BME280;64129;53.508;10.476;2023-04-06T03:52:13;101487.31;;;-0.20;76.83
75543;BME280;64129;53.508;10.476;2023-04-06T03:54:39;101485.03;;;-0.37;76.89
75543;BME280;64129;53.508;10.476;2023-04-06T03:57:08;101492.16;;;-0.33;77.11
75543;BME280;64129;53.508;10.476;2023-04-06T03:59:35;101496.09;;;-0.18;76.80
75543;BME280;64129;53.508;10.476;2023-04-06T04:02:02;101491.09;;;-0.38;77.20
75543;BME280;64129;53.508;10.476;2023-04-06T04:04:28;101495.38;;;-0.40;77.39
75543;BME280;64129;53.508;10.476;2023-04-06T04:06:57;101495.47;;;-0.37;77.32
75543;BME280;64129;53.508;10.476;2023-04-06T04:09:23;101495.59;;;-0.34;77.98
75543;BME280;64129;53.508;10.476;2023-04-06T04:11:50;101499.97;;;-0.33;78.22
75543;BME280;64129;53.508;10.476;2023-04-06T04:14:16;101502.59;;;-0.33;77.83
75543;BME280;64129;53.508;10.476;2023-04-06T04:16:44;101502.88;;;-0.23;77.38
75543;BME280;64129;53.508;10.476;2023-04-06T04:19:10;101503.06;;;-0.44;78.49
75543;BME280;64129;53.508;10.476;2023-04-06T04:21:44;101502.38;;;-0.39;77.83
75543;BME280;64129;53.508;10.476;2023-04-06T04:24:14;101509.03;;;-0.21;77.60
75543;BME280;64129;53.508;10.476;2023-04-06T04:26:40;101510.56;;;-0.28;77.92
75543;BME280;64129;53.508;10.476;2023-04-06T04:29:07;101512.19;;;-0.32;78.14
75543;BME280;64129;53.508;10.476;2023-04-06T04:31:35;101510.56;;;-0.28;79.06
75543;BME280;64129;53.508;10.476;2023-04-06T04:34:05;101507.13;;;-0.27;79.07
75543;BME280;64129;53.508;10.476;2023-04-06T04:36:33;101507.91;;;-0.29;78.54
75543;BME280;64129;53.508;10.476;2023-04-06T04:39:03;101509.59;;;-0.32;78.48
75543;BME280;64129;53.508;10.476;2023-04-06T04:41:35;101506.44;;;-0.21;78.62
75543;BME280;64129;53.508;10.476;2023-04-06T04:44:05;101506.09;;;-0.32;78.18
75543;BME280;64129;53.508;10.476;2023-04-06T04:46:32;101503.97;;;-0.17;78.15
75543;BME280;64129;53.508;10.476;2023-04-06T04:48:59;101501.53;;;-0.11;77.38
75543;BME280;64129;53.508;10.476;2023-04-06T04:51:26;101504.44;;;-0.02;77.38
75543;BME280;64129;53.508;10.476;2023-04-06T04:54:06;101509.38;;;-0.11;77.87
75543;BME280;64129;53.508;10.476;2023-04-06T04:56:33;101504.19;;;-0.09;77.74
75543;BME280;64129;53.508;10.476;2023-04-06T04:59:08;101499.34;;;-0.25;77.93
75543;BME280;64129;53.508;10.476;2023-04-06T05:01:38;101506.78;;;-0.36;77.99
75543;BME280;64129;53.508;10.476;2023-04-06T05:04:13;101507.69;;;-0.36;78.06
75543;BME280;64129;53.508;10.476;2023-04-06T05:06:39;101508.56;;;-0.35;78.43
75543;BME280;64129;53.508;10.476;2023-04-06T05:09:06;101508.66;;;-0.34;78.13
75543;BME280;64129;53.508;10.476;2023-04-06T05:11:33;101505.31;;;-0.29;77.98
75543;BME280;64129;53.508;10.476;2023-04-06T05:14:00;101502.03;;;-0.22;77.70
75543;BME280;64129;53.508;10.476;2023-04-06T05:16:27;101510.16;;;-0.13;77.68
75543;BME280;64129;53.508;10.476;2023-04-06T05:18:53;101509.50;;;-0.06;77.64
75543;BME280;64129;53.508;10.476;2023-04-06T05:21:25;101511.09;;;-0.11;78.38
75543;BME280;64129;53.508;10.476;2023-04-06T05:23:58;101512.88;;;-0.10;78.16
75543;BME280;64129;53.508;10.476;2023-04-06T05:26:26;101513.63;;;-0.14;78.71
75543;BME280;64129;53.508;10.476;2023-04-06T05:28:57;101517.06;;;-0.15;78.64
75543;BME280;64129;53.508;10.476;2023-04-06T05:31:25;101510.16;;;-0.13;79.07
75543;BME280;64129;53.508;10.476;2023-04-06T05:33:51;101514.31;;;0.07;78.88
75543;BME280;64129;53.508;10.476;2023-04-06T05:36:33;101516.16;;;0.11;78.86
75543;BME280;64129;53.508;10.476;2023-04-06T05:39:05;101521.25;;;0.07;78.81
75543;BME280;64129;53.508;10.476;2023-04-06T05:41:42;101510.75;;;0.05;79.78
75543;BME280;64129;53.508;10.476;2023-04-06T05:44:10;101526.53;;;0.08;80.18
75543;BME280;64129;53.508;10.476;2023-04-06T05:46:38;101521.41;;;0.11;80.18
75543;BME280;64129;53.508;10.476;2023-04-06T05:49:08;101514.84;;;0.25;79.47
75543;BME280;64129;53.508;10.476;2023-04-06T05:51:35;101513.25;;;0.30;78.92
75543;BME280;64129;53.508;10.476;2023-04-06T05:54:01;101510.81;;;0.35;79.30
75543;BME280;64129;53.508;10.476;2023-04-06T05:56:28;101517.13;;;0.42;79.40
75543;BME280;64129;53.508;10.476;2023-04-06T05:58:56;101519.78;;;0.43;79.63
75543;BME280;64129;53.508;10.476;2023-04-06T06:01:26;101519.84;;;0.46;79.97
75543;BME280;64129;53.508;10.476;2023-04-06T06:03:53;101517.28;;;0.48;79.05
75543;BME280;64129;53.508;10.476;2023-04-06T06:06:20;101515.59;;;0.50;79.31
75543;BME280;64129;53.508;10.476;2023-04-06T06:09:02;101522.06;;;0.62;78.13
75543;BME280;64129;53.508;10.476;2023-04-06T06:11:33;101519.50;;;0.64;77.88
75543;BME280;64129;53.508;10.476;2023-04-06T06:14:01;101524.22;;;0.76;79.01
75543;BME280;64129;53.508;10.476;2023-04-06T06:16:31;101529.44;;;0.76;78.63
75543;BME280;64129;53.508;10.476;2023-04-06T06:18:58;101518.09;;;0.75;78.79
75543;BME280;64129;53.508;10.476;2023-04-06T06:21:24;101520.03;;;0.82;78.72
75543;BME280;64129;53.508;10.476;2023-04-06T06:23:52;101527.25;;;0.91;74.86
75543;BME280;64129;53.508;10.476;2023-04-06T06:26:20;101523.84;;;0.93;75.28
75543;BME280;64129;53.508;10.476;2023-04-06T06:28:48;101525.97;;;1.07;77.52
75543;BME280;64129;53.508;10.476;2023-04-06T06:31:15;101522.75;;;1.17;77.07
75543;BME280;64129;53.508;10.476;2023-04-06T06:33:43;101534.47;;;1.31;76.75
75543;BME280;64129;53.508;10.476;2023-04-06T06:36:09;101530.00;;;1.27;74.52
75543;BME280;64129;53.508;10.476;2023-04-06T06:38:37;101533.88;;;1.41;75.26
75543;BME280;64129;53.508;10.476;2023-04-06T06:41:04;101526.03;;;1.41;74.12
75543;BME280;64129;53.508;10.476;2023-04-06T06:43:33;101516.88;;;1.59;74.99
75543;BME280;64129;53.508;10.476;2023-04-06T06:46:05;101519.66;;;1.66;74.28
75543;BME280;64129;53.508;10.476;2023-04-06T06:48:32;101520.06;;;1.81;73.83
75543;BME280;64129;53.508;10.476;2023-04-06T06:50:58;101519.44;;;1.92;72.27
75543;BME280;64129;53.508;10.476;2023-04-06T06:53:25;101519.53;;;1.96;71.76
75543;BME280;64129;53.508;10.476;2023-04-06T06:55:52;101525.22;;;2.14;73.03
75543;BME280;64129;53.508;10.476;2023-04-06T06:58:19;101517.72;;;2.31;72.64
75543;BME280;64129;53.508;10.476;2023-04-06T07:00:46;101515.34;;;2.42;71.81
75543;BME280;64129;53.508;10.476;2023-04-06T07:03:13;101519.16;;;2.56;71.82
75543;BME280;64129;53.508;10.476;2023-04-06T07:05:45;101513.66;;;3.31;67.12
75543;BME280;64129;53.508;10.476;2023-04-06T07:08:16;101521.13;;;3.10;68.67
75543;BME280;64129;53.508;10.476;2023-04-06T07:10:42;101519.63;;;3.21;68.97
75543;BME280;64129;53.508;10.476;2023-04-06T07:13:09;101518.03;;;3.31;67.37
75543;BME280;64129;53.508;10.476;2023-04-06T07:15:38;101517.31;;;3.39;68.65
75543;BME280;64129;53.508;10.476;2023-04-06T07:18:04;101520.22;;;3.55;67.08
75543;BME280;64129;53.508;10.476;2023-04-06T07:20:31;101519.31;;;3.53;66.31
75543;BME280;64129;53.508;10.476;2023-04-06T07:22:58;101514.69;;;3.89;67.33
75543;BME280;64129;53.508;10.476;2023-04-06T07:25:24;101519.75;;;3.80;64.15
75543;BME280;64129;53.508;10.476;2023-04-06T07:27:51;101506.25;;;4.12;65.72
75543;BME280;64129;53.508;10.476;2023-04-06T07:30:18;101515.00;;;4.11;63.63
75543;BME280;64129;53.508;10.476;2023-04-06T07:32:45;101508.31;;;4.31;63.95
75543;BME280;64129;53.508;10.476;2023-04-06T07:35:11;101498.03;;;4.49;64.29
75543;BME280;64129;53.508;10.476;2023-04-06T07:37:39;101510.66;;;4.76;64.04
75543;BME280;64129;53.508;10.476;2023-04-06T07:40:06;101510.84;;;4.90;61.83
75543;BME280;64129;53.508;10.476;2023-04-06T07:42:33;101504.03;;;5.10;62.56
75543;BME280;64129;53.508;10.476;2023-04-06T07:45:02;101509.28;;;5.07;61.19
75543;BME280;64129;53.508;10.476;2023-04-06T07:47:30;101504.00;;;5.07;60.62
75543;BME280;64129;53.508;10.476;2023-04-06T07:49:56;101506.94;;;5.36;60.55
75543;BME280;64129;53.508;10.476;2023-04-06T07:52:23;101504.41;;;5.47;59.08
75543;BME280;64129;53.508;10.476;2023-04-06T07:54:50;101502.66;;;5.46;58.56
75543;BME280;64129;53.508;10.476;2023-04-06T07:57:16;101503.00;;;5.85;58.64
75543;BME280;64129;53.508;10.476;2023-04-06T07:59:43;101509.31;;;5.98;56.76
75543;BME280;64129;53.508;10.476;2023-04-06T08:02:09;101498.84;;;6.13;56.33
75543;BME280;64129;53.508;10.476;2023-04-06T08:04:36;101506.81;;;6.24;56.41
75543;BME280;64129;53.508;10.476;2023-04-06T08:07:03;101496.34;;;6.30;56.64
75543;BME280;64129;53.508;10.476;2023-04-06T08:09:29;101500.06;;;6.69;54.83
75543;BME280;64129;53.508;10.476;2023-04-06T08:11:57;101499.44;;;7.75;57.57
75543;BME280;64129;53.508;10.476;2023-04-06T08:14:23;101503.81;;;7.53;53.07
75543;BME280;64129;53.508;10.476;2023-04-06T08:16:50;101497.63;;;8.13;52.21
75543;BME280;64129;53.508;10.476;2023-04-06T08:19:16;101493.25;;;7.77;52.86
75543;BME280;64129;53.508;10.476;2023-04-06T08:21:45;101500.31;;;7.69;51.23
75543;BME280;64129;53.508;10.476;2023-04-06T08:24:13;101500.31;;;7.66;53.75
75543;BME280;64129;53.508;10.476;2023-04-06T08:26:39;101495.91;;;7.76;52.10
75543;BME280;64129;53.508;10.476;2023-04-06T08:29:06;101499.41;;;7.90;52.40
75543;BME280;64129;53.508;10.476;2023-04-06T08:31:35;101491.47;;;7.89;52.17
75543;BME280;64129;53.508;10.476;2023-04-06T08:34:05;101496.72;;;8.31;50.31
75543;BME280;64129;53.508;10.476;2023-04-06T08:36:32;101492.31;;;8.47;51.22
75543;BME280;64129;53.508;10.476;2023-04-06T08:38:59;101494.91;;;8.61;49.11
75543;BME280;64129;53.508;10.476;2023-04-06T08:41:27;101498.44;;;8.60;50.26
75543;BME280;64129;53.508;10.476;2023-04-06T08:44:01;101497.38;;;8.99;49.00
75543;BME280;64129;53.508;10.476;2023-04-06T08:46:29;101497.41;;;8.96;46.83
75543;BME280;64129;53.508;10.476;2023-04-06T08:48:59;101487.53;;;9.24;44.53
75543;BME280;64129;53.508;10.476;2023-04-06T08:51:27;101488.38;;;9.32;47.32
75543;BME280;64129;53.508;10.476;2023-04-06T08:53:56;101498.19;;;9.18;44.62
75543;BME280;64129;53.508;10.476;2023-04-06T08:56:24;101480.31;;;9.50;44.99
75543;BME280;64129;53.508;10.476;2023-04-06T08:58:53;101471.03;;;10.00;44.66
75543;BME280;64129;53.508;10.476;2023-04-06T09:01:28;101480.03;;;9.84;44.52
75543;BME280;64129;53.508;10.476;2023-04-06T09:03:57;101475.53;;;9.93;40.31
75543;BME280;64129;53.508;10.476;2023-04-06T09:06:25;101472.75;;;10.04;41.03
75543;BME280;64129;53.508;10.476;2023-04-06T09:08:53;101474.50;;;10.11;45.53
75543;BME280;64129;53.508;10.476;2023-04-06T09:11:21;101476.22;;;10.15;39.83
75543;BME280;64129;53.508;10.476;2023-04-06T09:13:50;101468.84;;;10.45;40.09
75543;BME280;64129;53.508;10.476;2023-04-06T09:16:17;101477.50;;;10.62;42.62
75543;BME280;64129;53.508;10.476;2023-04-06T09:18:45;101472.28;;;10.53;38.06
75543;BME280;64129;53.508;10.476;2023-04-06T09:21:12;101482.84;;;10.59;38.23
75543;BME280;64129;53.508;10.476;2023-04-06T09:23:39;101473.56;;;10.93;40.69
75543;BME280;64129;53.508;10.476;2023-04-06T09:26:11;101471.28;;;11.29;40.19
75543;BME280;64129;53.508;10.476;2023-04-06T09:28:52;101473.19;;;11.21;35.62
75543;BME280;64129;53.508;10.476;2023-04-06T09:31:23;101476.84;;;11.69;36.87
75543;BME280;64129;53.508;10.476;2023-04-06T09:33:50;101458.63;;;11.46;38.81
75543;BME280;64129;53.508;10.476;2023-04-06T09:36:18;101461.72;;;11.73;35.34
75543;BME280;64129;53.508;10.476;2023-04-06T09:38:56;101458.16;;;11.74;37.01
75543;BME280;64129;53.508;10.476;2023-04-06T09:41:27;101461.56;;;11.85;37.33
75543;BME280;64129;53.508;10.476;2023-04-06T09:44:05;101456.00;;;11.99;34.68
75543;BME280;64129;53.508;10.476;2023-04-06T09:46:37;101449.78;;;11.98;36.86
75543;BME280;64129;53.508;10.476;2023-04-06T09:49:13;101459.22;;;12.62;37.54
75543;BME280;64129;53.508;10.476;2023-04-06T09:51:41;101447.22;;;12.81;37.55
75543;BME280;64129;53.508;10.476;2023-04-06T09:54:11;101452.19;;;13.00;36.82
75543;BME280;64129;53.508;10.476;2023-04-06T09:56:51;101442.09;;;12.29;34.80
75543;BME280;64129;53.508;10.476;2023-04-06T10:02:05;101442.06;;;13.14;35.84
75543;BME280;64129;53.508;10.476;2023-04-06T10:04:41;101440.25;;;13.16;33.06
75543;BME280;64129;53.508;10.476;2023-04-06T10:07:10;101439.28;;;13.59;36.20
75543;BME280;64129;53.508;10.476;2023-04-06T10:09:38;101440.28;;;13.55;31.30
75543;BME280;64129;53.508;10.476;2023-04-06T10:12:05;101433.19;;;13.54;31.13
75543;BME280;64129;53.508;10.476;2023-04-06T10:14:33;101431.28;;;13.22;29.60
75543;BME280;64129;53.508;10.476;2023-04-06T10:17:04;101425.53;;;13.74;34.27
75543;BME280;64129;53.508;10.476;2023-04-06T10:19:36;101433.22;;;13.86;30.13
75543;BME280;64129;53.508;10.476;2023-04-06T10:22:08;101428.13;;;13.41;28.23
75543;BME280;64129;53.508;10.476;2023-04-06T10:24:37;101429.16;;;13.71;29.84
75543;BME280;64129;53.508;10.476;2023-04-06T10:27:06;101427.66;;;13.95;30.24
75543;BME280;64129;53.508;10.476;2023-04-06T10:29:46;101423.66;;;14.44;28.82
75543;BME280;64129;53.508;10.476;2023-04-06T10:32:15;101430.34;;;14.60;29.87
75543;BME280;64129;53.508;10.476;2023-04-06T10:34:41;101425.88;;;13.96;28.97
75543;BME280;64129;53.508;10.476;2023-04-06T10:37:15;101423.91;;;14.02;28.03
75543;BME280;64129;53.508;10.476;2023-04-06T10:39:46;101432.63;;;14.73;32.22
75543;BME280;64129;53.508;10.476;2023-04-06T10:42:13;101421.63;;;14.20;28.21
75543;BME280;64129;53.508;10.476;2023-04-06T10:44:43;101425.81;;;14.62;27.96
75543;BME280;64129;53.508;10.476;2023-04-06T10:47:16;101415.84;;;14.97;28.16
75543;BME280;64129;53.508;10.476;2023-04-06T10:49:46;101419.41;;;14.68;26.96
75543;BME280;64129;53.508;10.476;2023-04-06T10:52:13;101413.44;;;14.88;27.76
75543;BME280;64129;53.508;10.476;2023-04-06T10:54:42;101413.88;;;15.32;28.34
75543;BME280;64129;53.508;10.476;2023-04-06T10:57:12;101414.34;;;15.16;29.65
75543;BME280;64129;53.508;10.476;2023-04-06T10:59:42;101406.56;;;15.37;30.55
75543;BME280;64129;53.508;10.476;2023-04-06T11:02:19;101400.38;;;15.63;28.26
75543;BME280;64129;53.508;10.476;2023-04-06T11:04:54;101410.50;;;15.79;27.48
75543;BME280;64129;53.508;10.476;2023-04-06T11:07:27;101404.66;;;15.40;26.54
75543;BME280;64129;53.508;10.476;2023-04-06T11:09:56;101398.38;;;15.69;27.32
75543;BME280;64129;53.508;10.476;2023-04-06T11:12:36;101398.84;;;15.54;28.38
75543;BME280;64129;53.508;10.476;2023-04-06T11:15:03;101398.53;;;15.37;27.16
75543;BME280;64129;53.508;10.476;2023-04-06T11:17:32;101402.34;;;15.29;27.03
75543;BME280;64129;53.508;10.476;2023-04-06T11:19:58;101404.00;;;15.86;29.53
75543;BME280;64129;53.508;10.476;2023-04-06T11:22:26;101391.50;;;15.60;26.34
75543;BME280;64129;53.508;10.476;2023-04-06T11:24:52;101392.13;;;15.94;28.49
75543;BME280;64129;53.508;10.476;2023-04-06T11:27:19;101394.09;;;16.62;27.56
75543;BME280;64129;53.508;10.476;2023-04-06T11:29:47;101399.00;;;16.75;28.41
75543;BME280;64129;53.508;10.476;2023-04-06T11:32:21;101389.63;;;16.14;26.79
75543;BME280;64129;53.508;10.476;2023-04-06T11:34:48;101383.84;;;16.49;25.21
75543;BME280;64129;53.508;10.476;2023-04-06T11:37:15;101381.50;;;16.64;26.91
75543;BME280;64129;53.508;10.476;2023-04-06T11:39:50;101381.53;;;16.87;27.33
75543;BME280;64129;53.508;10.476;2023-04-06T11:42:28;101385.22;;;16.13;26.94
75543;BME280;64129;53.508;10.476;2023-04-06T11:44:59;101374.44;;;17.30;26.36
75543;BME280;64129;53.508;10.476;2023-04-06T11:47:33;101381.69;;;17.06;25.66
75543;BME280;64129;53.508;10.476;2023-04-06T11:50:11;101384.91;;;16.92;25.16
75543;BME280;64129;53.508;10.476;2023-04-06T11:52:39;101371.84;;;17.49;25.55
75543;BME280;64129;53.508;10.476;2023-04-06T11:55:11;101377.44;;;17.64;25.80
75543;BME280;64129;53.508;10.476;2023-04-06T11:57:39;101380.13;;;17.44;24.14
75543;BME280;64129;53.508;10.476;2023-04-06T12:00:07;101368.06;;;17.32;26.86
75543;BME280;64129;53.508;10.476;2023-04-06T12:02:38;101368.91;;;17.76;26.92
75543;BME280;64129;53.508;10.476;2023-04-06T12:05:05;101369.16;;;17.91;27.52
75543;BME280;64129;53.508;10.476;2023-04-06T12:07:33;101375.22;;;17.96;25.98
75543;BME280;64129;53.508;10.476;2023-04-06T12:10:01;101375.16;;;17.33;25.00
75543;BME280;64129;53.508;10.476;2023-04-06T12:12:28;101359.69;;;16.96;23.63
75543;BME280;64129;53.508;10.476;2023-04-06T12:14:55;101364.31;;;17.99;25.01
75543;BME280;64129;53.508;10.476;2023-04-06T12:17:22;101364.25;;;18.00;23.38
75543;BME280;64129;53.508;10.476;2023-04-06T12:19:49;101355.28;;;18.41;25.10
75543;BME280;64129;53.508;10.476;2023-04-06T12:22:17;101360.31;;;18.09;26.18
75543;BME280;64129;53.508;10.476;2023-04-06T12:24:44;101353.47;;;17.82;25.66
75543;BME280;64129;53.508;10.476;2023-04-06T12:27:10;101357.56;;;18.29;25.78
75543;BME280;64129;53.508;10.476;2023-04-06T12:29:38;101357.47;;;17.92;23.93
75543;BME280;64129;53.508;10.476;2023-04-06T12:32:05;101361.78;;;17.96;25.21
75543;BME280;64129;53.508;10.476;2023-04-06T12:34:32;101356.94;;;18.82;24.88
75543;BME280;64129;53.508;10.476;2023-04-06T12:36:58;101357.06;;;18.01;23.69
75543;BME280;64129;53.508;10.476;2023-04-06T12:39:27;101353.66;;;18.36;24.41
75543;BME280;64129;53.508;10.476;2023-04-06T12:41:54;101350.72;;;18.43;22.58
75543;BME280;64129;53.508;10.476;2023-04-06T12:44:21;101351.38;;;18.66;24.26
75543;BME280;64129;53.508;10.476;2023-04-06T12:46:48;101357.22;;;18.76;24.37
75543;BME280;64129;53.508;10.476;2023-04-06T12:49:15;101345.41;;;18.97;23.21
75543;BME280;64129;53.508;10.476;2023-04-06T12:51:43;101350.47;;;19.04;21.95
75543;BME280;64129;53.508;10.476;2023-04-06T12:54:09;101346.31;;;18.21;23.13
75543;BME280;64129;53.508;10.476;2023-04-06T12:56:38;101348.09;;;18.60;25.09